Map

Track Data

SID SEASON NUMBER BASIN SUBBASIN NAME ISO_TIME NATURE LAT LON WMO_WIND WMO_PRES WMO_AGENCY TRACK_TYPE DIST2LAND LANDFALL IFLAG USA_AGENCY USA_ATCF_ID USA_LAT USA_LON USA_RECORD USA_STATUS USA_WIND USA_PRES USA_SSHS USA_R34_NE USA_R34_SE USA_R34_SW USA_R34_NW USA_R50_NE USA_R50_SE USA_R50_SW USA_R50_NW USA_R64_NE USA_R64_SE USA_R64_SW USA_R64_NW USA_POCI USA_ROCI USA_RMW USA_EYE TOKYO_LAT TOKYO_LON TOKYO_GRADE TOKYO_WIND TOKYO_PRES TOKYO_R50_DIR TOKYO_R50_LONG TOKYO_R50_SHORT TOKYO_R30_DIR TOKYO_R30_LONG TOKYO_R30_SHORT TOKYO_LAND CMA_LAT CMA_LON CMA_CAT CMA_WIND CMA_PRES HKO_LAT HKO_LON HKO_CAT HKO_WIND HKO_PRES NEWDELHI_LAT NEWDELHI_LON NEWDELHI_GRADE NEWDELHI_WIND NEWDELHI_PRES NEWDELHI_CI NEWDELHI_DP NEWDELHI_POCI REUNION_LAT REUNION_LON REUNION_TYPE REUNION_WIND REUNION_PRES REUNION_TNUM REUNION_CI REUNION_RMW REUNION_R34_NE REUNION_R34_SE REUNION_R34_SW REUNION_R34_NW REUNION_R50_NE REUNION_R50_SE REUNION_R50_SW REUNION_R50_NW REUNION_R64_NE REUNION_R64_SE REUNION_R64_SW REUNION_R64_NW BOM_LAT BOM_LON BOM_TYPE BOM_WIND BOM_PRES BOM_TNUM BOM_CI BOM_RMW BOM_R34_NE BOM_R34_SE BOM_R34_SW BOM_R34_NW BOM_R50_NE BOM_R50_SE BOM_R50_SW BOM_R50_NW BOM_R64_NE BOM_R64_SE BOM_R64_SW BOM_R64_NW BOM_ROCI BOM_POCI BOM_EYE BOM_POS_METHOD BOM_PRES_METHOD NADI_LAT NADI_LON NADI_CAT NADI_WIND NADI_PRES WELLINGTON_LAT WELLINGTON_LON WELLINGTON_WIND WELLINGTON_PRES DS824_LAT DS824_LON DS824_STAGE DS824_WIND DS824_PRES TD9636_LAT TD9636_LON TD9636_STAGE TD9636_WIND TD9636_PRES TD9635_LAT TD9635_LON TD9635_WIND TD9635_PRES TD9635_ROCI NEUMANN_LAT NEUMANN_LON NEUMANN_CLASS NEUMANN_WIND NEUMANN_PRES MLC_LAT MLC_LON MLC_CLASS MLC_WIND MLC_PRES USA_GUST BOM_GUST BOM_GUST_PER REUNION_GUST REUNION_GUST_PER USA_SEAHGT USA_SEARAD_NE USA_SEARAD_SE USA_SEARAD_SW USA_SEARAD_NW STORM_SPEED STORM_DIR
1900221N20088 1900 14 NI BB NOT_NAMED 1900-08-09 00:00:00 TS 20.2000 87.9000 main 109 109 _________O____ -1 20.2000 87.9000 TC 30 0 0
1900221N20088 1900 14 NI BB NOT_NAMED 1900-08-09 03:00:00 TS 20.2000 87.9000 main 109 109 _________PO___ -1 20.2000 87.9000 TC 30 20.2000 87.9000 1 0 0
1900221N20088 1900 14 NI BB NOT_NAMED 1900-08-09 06:00:00 TS 20.2013 87.8956 main 109 109 _________OP___ -1 20.2000 87.9000 TC 30 20.2031 87.8891 1 0 0
1900221N20088 1900 14 NI BB NOT_NAMED 1900-08-09 09:00:00 TS 20.2022 87.8925 main 109 109 _________PP___ -1 20.2000 87.9000 TC 30 20.2050 87.8825 1 0 0
1900221N20088 1900 14 NI BB NOT_NAMED 1900-08-09 12:00:00 TS 20.2022 87.8923 main 109 109 _________OP___ -1 20.2000 87.9000 TC 30 20.2044 87.8847 1 0 0
1900221N20088 1900 14 NI BB NOT_NAMED 1900-08-09 15:00:00 TS 20.2000 87.9000 main 109 109 _________PO___ -1 20.2000 87.9000 TC 30 20.2000 87.9000 1 0 0
1900221N20088 1900 14 NI BB NOT_NAMED 1900-08-09 18:00:00 TS 20.1959 87.9142 main 109 109 _________OP___ -1 20.2000 87.9000 TC 30 20.1918 87.9284 1 0 107
1900221N20088 1900 14 NI BB NOT_NAMED 1900-08-09 21:00:00 TS 20.1887 87.9375 main 109 109 _________PP___ -1 20.1925 87.9225 TC 30 20.1849 87.9524 1 0 0
1900221N20088 1900 14 NI BB NOT_NAMED 1900-08-10 00:00:00 TS 20.1928 87.9251 main 109 100 _________OP___ -1 20.2000 87.9000 TC 30 20.1855 87.9502 1 1 290
1900221N20088 1900 14 NI BB NOT_NAMED 1900-08-10 03:00:00 TS 20.2213 87.8400 main 100 85 _________PO___ -1 20.2425 87.7800 TC 30 20.2000 87.9000 1 2 289
1900221N20088 1900 14 NI BB NOT_NAMED 1900-08-10 06:00:00 TS 20.2678 87.6897 main 85 68 _________OP___ -1 20.3000 87.6000 TC 30 20.2357 87.7794 1 3 287
1900221N20088 1900 14 NI BB NOT_NAMED 1900-08-10 09:00:00 TS 20.3175 87.5088 main 68 45 _________PP___ -1 20.3500 87.4075 TC 30 20.2851 87.6101 1 4 286
1900221N20088 1900 14 NI BB NOT_NAMED 1900-08-10 12:00:00 TS 20.3710 87.3053 main 45 30 _________OP___ -1 20.4000 87.2000 TC 30 20.3419 87.4107 1 4 286
1900221N20088 1900 14 NI BB NOT_NAMED 1900-08-10 15:00:00 TS 20.4250 87.1000 main 30 10 _________PO___ -1 20.4500 87.0000 TC 30 20.4000 87.2000 1 4 285
1900221N20088 1900 14 NI BB NOT_NAMED 1900-08-10 18:00:00 TS 20.4686 86.9278 main 10 0 _________OP___ -1 20.5000 86.8000 TC 30 20.4372 87.0555 1 3 285
1900221N20088 1900 14 NI BB NOT_NAMED 1900-08-10 21:00:00 TS 20.5056 86.7708 main 0 0 _________PP___ -1 20.5347 86.6448 TC 30 20.4765 86.8969 1 4 285
1900221N20088 1900 14 NI BB NOT_NAMED 1900-08-11 00:00:00 TS 20.5638 86.5449 main 0 0 _________OP___ -1 20.6000 86.4000 TC 30 20.5276 86.6898 1 6 286
1900221N20088 1900 14 NI BB NOT_NAMED 1900-08-11 03:00:00 TS 20.6713 86.1726 main 0 0 _________PO___ -1 20.7427 85.9452 TC 30 20.6000 86.4000 1 8 287
1900221N20088 1900 14 NI BB NOT_NAMED 1900-08-11 06:00:00 TS 20.8019 85.6973 main 0 0 _________OP___ -1 20.9000 85.4000 TC 30 20.7038 85.9945 1 9 285
1900221N20088 1900 14 NI BB NOT_NAMED 1900-08-11 09:00:00 TS 20.9138 85.2062 main 0 0 _________PP___ -1 20.9998 84.9073 TC 30 20.8279 85.5052 1 10 284
1900221N20088 1900 14 NI BB NOT_NAMED 1900-08-11 12:00:00 TS 21.0315 84.6816 main 0 0 _________OP___ -1 21.1000 84.4000 TC 30 20.9630 84.9632 1 10 285
1900221N20088 1900 14 NI BB NOT_NAMED 1900-08-11 15:00:00 TS 21.1749 84.1288 main 0 0 _________PO___ -1 21.2499 83.8576 TC 30 21.1000 84.4000 1 11 285
1900221N20088 1900 14 NI BB NOT_NAMED 1900-08-11 18:00:00 TS 21.3146 83.5721 main 0 0 _________OP___ -1 21.4000 83.3000 TC 30 21.2292 83.8441 1 11 284
1900221N20088 1900 14 NI BB NOT_NAMED 1900-08-11 21:00:00 TS 21.4326 83.0062 main 0 0 _________PP___ -1 21.5075 82.7349 TC 30 21.3577 83.2776 1 11 282
1900221N20088 1900 14 NI BB NOT_NAMED 1900-08-12 00:00:00 TS 21.5412 82.4611 main 0 0 _________OP___ -1 21.6000 82.2000 TC 30 21.4824 82.7222 1 10 283
1900221N20088 1900 14 NI BB NOT_NAMED 1900-08-12 03:00:00 TS 21.6499 81.9637 main 0 0 _________PO___ -1 21.6998 81.7274 TC 30 21.6000 82.2000 1 9 283
1900221N20088 1900 14 NI BB NOT_NAMED 1900-08-12 06:00:00 TS 21.7491 81.5193 main 0 0 _________OP___ -1 21.8000 81.3000 TC 30 21.6982 81.7385 1 8 284
1900221N20088 1900 14 NI BB NOT_NAMED 1900-08-12 09:00:00 TS 21.8419 81.1058 main 0 0 _________PP___ -1 21.8923 80.8998 TC 30 21.7914 81.3117 1 8 284
1900221N20088 1900 14 NI BB NOT_NAMED 1900-08-12 12:00:00 TS 21.9445 80.7021 main 0 0 _________OP___ -1 22.0000 80.5000 TC 30 21.8890 80.9041 1 8 287
1900221N20088 1900 14 NI BB NOT_NAMED 1900-08-12 15:00:00 TS 22.0712 80.2750 main 0 0 _________PO___ -1 22.1425 80.0500 TC 30 22.0000 80.5000 1 8 288
1900221N20088 1900 14 NI BB NOT_NAMED 1900-08-12 18:00:00 TS 22.2115 79.8393 main 0 0 _________OP___ -1 22.3000 79.6000 TC 30 22.1230 80.0787 1 8 290
1900221N20088 1900 14 NI BB NOT_NAMED 1900-08-12 21:00:00 TS 22.3521 79.4283 main 0 0 _________PP___ -1 22.4423 79.1998 TC 30 22.2619 79.6569 1 8 291
1900221N20088 1900 14 NI BB NOT_NAMED 1900-08-13 00:00:00 TS 22.5099 79.0158 main 0 0 _________OP___ -1 22.6000 78.8000 TC 30 22.4199 79.2317 1 9 293
1900221N20088 1900 14 NI BB NOT_NAMED 1900-08-13 03:00:00 TS 22.6925 78.5787 main 0 0 _________PO___ -1 22.7849 78.3574 TC 30 22.6000 78.8000 1 9 296
1900221N20088 1900 14 NI BB NOT_NAMED 1900-08-13 06:00:00 TS 22.9037 78.1226 main 0 0 _________OP___ -1 23.0000 77.9000 TC 30 22.8074 78.3452 1 10 298
1900221N20088 1900 14 NI AS NOT_NAMED 1900-08-13 09:00:00 TS 23.1425 77.6639 main 0 0 _________PP___ -1 23.2499 77.4425 TC 30 23.0350 77.8853 1 10 300
1900221N20088 1900 14 NI AS NOT_NAMED 1900-08-13 12:00:00 TS 23.3850 77.2163 main 0 0 _________OP___ -1 23.5000 77.0000 TC 30 23.2700 77.4326 1 9 300
1900221N20088 1900 14 NI AS NOT_NAMED 1900-08-13 15:00:00 TS 23.6037 76.7924 main 0 0 _________PO___ -1 23.7074 76.5848 TC 30 23.5000 77.0000 1 8 300
1900221N20088 1900 14 NI AS NOT_NAMED 1900-08-13 18:00:00 TS 23.7945 76.4267 main 0 0 _________OP___ -1 23.9000 76.2000 TC 30 23.7154 76.5967 1 8 300
1900221N20088 1900 14 NI AS NOT_NAMED 1900-08-13 21:00:00 TS 23.9898 76.0678 main 0 0 _________PP___ -1 24.0976 75.8427 TC 30 23.9178 76.2179 1 7 301
1900221N20088 1900 14 NI AS NOT_NAMED 1900-08-14 00:00:00 TS 24.1742 75.7368 main 0 0 _________OP___ -1 24.3000 75.5000 TC 30 24.1113 75.8552 1 6 301
1900221N20088 1900 14 NI AS NOT_NAMED 1900-08-14 03:00:00 NR 24.3000 75.5000 main 0 __________O___ -1 TC 24.3000 75.5000 1 5 300

About IBTrACS Database

This database is a web-friendly format of International Best Track Archive for Climate Stewardship (IBTrACS), a global best track data archive curated by NOAA dating back to 1842.

Updated: 2021-11-26